Time;durP1;ratioP1;P1;durP2;ratioP2;P2;SDS_P1;SDS_P2;PMS_P1;PMS_P2;Temp;Humidity;BMP_temperature;BMP_pressure;BME280_temperature;BME280_humidity;BME280_pressure;Samples;Min_cycle;Max_cycle;Signal;HPM_P1;HPM_P2
2022/04/28 00:01:01;;;;;;;11.70;6.70;;;;;;;3.61;nan;101960.06;4930113;29;20115;-80
2022/04/28 00:03:28;;;;;;;10.10;7.00;;;;;;;3.65;nan;101961.03;4931460;29;20126;-83
2022/04/28 00:05:55;;;;;;;10.07;7.13;;;;;;;3.62;nan;101961.84;4931184;28;20106;-80
2022/04/28 00:08:23;;;;;;;12.00;7.10;;;;;;;3.63;nan;101961.00;4949297;29;20094;-80
2022/04/28 00:10:50;;;;;;;9.77;6.33;;;;;;;3.58;nan;101959.97;4930057;29;20119;-80
2022/04/28 00:13:18;;;;;;;11.27;7.13;;;;;;;3.61;nan;101953.94;4926866;28;20043;-80
2022/04/28 00:15:45;;;;;;;9.63;6.20;;;;;;;3.58;nan;101962.59;4961122;29;20107;-80
2022/04/28 00:18:12;;;;;;;9.20;6.43;;;;;;;3.59;nan;101961.75;4953074;29;20115;-82
2022/04/28 00:20:39;;;;;;;9.33;6.40;;;;;;;3.54;nan;101957.25;4913523;29;20190;-78
2022/04/28 00:23:06;;;;;;;10.30;6.87;;;;;;;3.53;nan;101958.97;4940482;29;20162;-84
2022/04/28 00:25:33;;;;;;;11.27;6.37;;;;;;;3.58;nan;101965.19;4945217;29;20091;-82
2022/04/28 00:28:00;;;;;;;11.50;6.93;;;;;;;3.52;nan;101962.41;4944204;29;20123;-82
2022/04/28 00:30:27;;;;;;;10.37;6.27;;;;;;;3.45;nan;101959.56;4913964;29;20123;-82
2022/04/28 00:32:54;;;;;;;12.43;6.80;;;;;;;3.52;nan;101959.78;4986702;23;20393;-79
2022/04/28 00:35:21;;;;;;;11.97;6.67;;;;;;;3.48;nan;101957.94;4956823;28;20041;-80
2022/04/28 00:37:48;;;;;;;9.77;6.77;;;;;;;3.44;nan;101957.81;4972241;28;20045;-79
2022/04/28 00:40:14;;;;;;;14.10;6.87;;;;;;;3.29;nan;101966.09;4954554;28;20048;-82
2022/04/28 00:42:41;;;;;;;9.67;6.47;;;;;;;3.24;nan;101965.94;4974686;28;20035;-81
2022/04/28 00:45:08;;;;;;;12.03;6.97;;;;;;;3.28;nan;101966.91;4970831;28;20400;-83
2022/04/28 00:50:39;;;;;;;8.50;6.23;;;;;;;3.24;nan;101978.09;4958028;28;20039;-80
2022/04/28 00:53:10;;;;;;;10.07;6.53;;;;;;;3.21;nan;101964.97;4974469;28;20038;-80
2022/04/28 00:55:37;;;;;;;12.40;7.23;;;;;;;3.32;nan;101969.66;4973573;28;20034;-82
2022/04/28 00:58:05;;;;;;;12.50;7.80;;;;;;;3.33;nan;101968.81;4955375;28;20038;-78
2022/04/28 01:00:32;;;;;;;13.17;7.87;;;;;;;3.42;nan;101973.44;4954186;28;20042;-78
2022/04/28 01:02:59;;;;;;;11.93;7.20;;;;;;;3.34;nan;101973.19;4954664;28;20046;-81
2022/04/28 01:05:29;;;;;;;11.07;7.40;;;;;;;3.33;nan;101975.78;4955620;28;20035;-84
2022/04/28 01:07:56;;;;;;;11.03;6.87;;;;;;;3.31;nan;101975.72;4972785;28;20049;-82
2022/04/28 01:10:23;;;;;;;11.87;7.60;;;;;;;3.28;nan;101973.03;4955854;28;20030;-83
2022/04/28 01:12:50;;;;;;;10.17;6.90;;;;;;;3.34;nan;101982.75;4956428;28;20529;-83
2022/04/28 01:15:17;;;;;;;12.93;7.40;;;;;;;3.25;nan;101985.09;4955130;28;20038;-83
2022/04/28 01:17:44;;;;;;;11.63;7.33;;;;;;;3.31;nan;101980.97;4940288;28;20048;-80
2022/04/28 01:20:11;;;;;;;12.10;7.40;;;;;;;3.36;nan;101978.47;4970807;28;20042;-78
2022/04/28 01:22:38;;;;;;;11.17;6.23;;;;;;;3.39;nan;101982.06;4971403;28;20038;-79
2022/04/28 01:25:07;;;;;;;11.07;6.87;;;;;;;3.36;nan;101994.13;4954983;28;20034;-78
2022/04/28 01:27:36;;;;;;;12.07;7.37;;;;;;;3.41;nan;101987.34;4954933;28;20042;-78
2022/04/28 01:30:21;;;;;;;12.77;7.57;;;;;;;3.39;nan;101992.53;4938482;28;20042;-79
2022/04/28 01:32:48;;;;;;;10.87;7.37;;;;;;;3.39;nan;101992.53;4970366;28;20041;-79
2022/04/28 01:35:15;;;;;;;12.67;7.37;;;;;;;3.40;nan;101990.78;4938408;28;20038;-78
2022/04/28 01:37:42;;;;;;;10.23;6.47;;;;;;;3.42;nan;101996.06;4938835;28;20046;-78
2022/04/28 01:40:11;;;;;;;10.13;7.23;;;;;;;3.46;nan;101988.38;4953769;28;20045;-79
2022/04/28 01:42:42;;;;;;;9.87;6.27;;;;;;;3.46;nan;101988.38;4955405;28;20049;-82
2022/04/28 01:45:09;;;;;;;10.17;6.73;;;;;;;3.39;nan;101989.91;4937184;28;20040;-78
2022/04/28 01:47:37;;;;;;;10.47;6.60;;;;;;;3.38;nan;101985.53;4938360;28;20085;-83
2022/04/28 01:50:09;;;;;;;9.87;5.63;;;;;;;3.36;nan;101982.00;4955283;28;20058;-80
2022/04/28 01:55:23;;;;;;;10.67;6.83;;;;;;;3.45;nan;101994.44;4958814;28;20057;-80
2022/04/28 01:57:50;;;;;;;14.47;6.97;;;;;;;3.44;nan;101986.53;4977711;28;20068;-80
2022/04/28 02:00:17;;;;;;;10.33;6.73;;;;;;;3.43;nan;101990.00;4991294;28;20068;-80
2022/04/28 02:02:45;;;;;;;11.70;7.30;;;;;;;3.37;nan;101994.22;4973779;28;20038;-80
2022/04/28 02:05:12;;;;;;;10.63;6.70;;;;;;;3.35;nan;102000.22;4972473;28;20041;-80
2022/04/28 02:07:39;;;;;;;9.07;6.10;;;;;;;3.34;nan;101994.09;4973445;28;20038;-78
2022/04/28 02:10:06;;;;;;;10.17;6.67;;;;;;;3.31;nan;101994.03;4980497;28;20046;-80
2022/04/28 02:12:33;;;;;;;8.93;6.20;;;;;;;3.31;nan;101998.34;4976081;28;20038;-80
2022/04/28 02:15:00;;;;;;;10.80;6.37;;;;;;;3.29;nan;101987.88;4974294;28;20033;-80
2022/04/28 02:17:28;;;;;;;10.47;6.47;;;;;;;3.44;nan;101986.53;4942228;28;20065;-79
2022/04/28 02:19:54;;;;;;;10.23;6.77;;;;;;;3.32;nan;101994.91;4997899;28;20054;-80
2022/04/28 02:22:22;;;;;;;15.37;6.70;;;;;;;3.31;nan;101991.41;4974767;28;20403;-79
2022/04/28 02:24:50;;;;;;;10.03;6.37;;;;;;;3.23;nan;101987.66;4968925;28;20045;-79
2022/04/28 02:27:18;;;;;;;10.80;7.10;;;;;;;3.19;nan;101988.41;4987468;28;20182;-79
2022/04/28 02:29:44;;;;;;;9.33;6.57;;;;;;;3.20;nan;101986.72;4966291;28;20042;-80
2022/04/28 02:32:11;;;;;;;11.80;7.03;;;;;;;3.09;nan;101986.34;4967107;28;20041;-79
2022/04/28 02:34:38;;;;;;;12.07;7.17;;;;;;;3.05;nan;101982.78;4973720;28;20038;-80
2022/04/28 02:37:06;;;;;;;10.60;7.30;;;;;;;2.97;nan;101981.66;4974093;28;20030;-79
2022/04/28 02:39:33;;;;;;;13.57;7.83;;;;;;;2.98;nan;101979.91;4961669;28;20069;-79
2022/04/28 02:42:00;;;;;;;12.47;7.50;;;;;;;2.92;nan;101979.72;4972770;28;20623;-79
2022/04/28 02:44:26;;;;;;;11.80;7.90;;;;;;;2.79;nan;101976.72;4972348;28;20056;-79
2022/04/28 02:46:53;;;;;;;11.53;7.10;;;;;;;2.74;nan;101974.78;4975349;28;20046;-79
2022/04/28 02:49:20;;;;;;;13.63;7.93;;;;;;;2.66;nan;101990.19;4950930;28;20048;-79
2022/04/28 02:51:47;;;;;;;12.73;7.97;;;;;;;2.53;nan;101982.81;4985376;28;20073;-79
2022/04/28 02:54:14;;;;;;;13.37;7.77;;;;;;;2.46;nan;101979.13;4987140;28;20068;-79
2022/04/28 02:56:41;;;;;;;11.43;7.47;;;;;;;2.45;nan;101985.16;4957165;28;20399;-80
2022/04/28 02:59:09;;;;;;;13.37;8.10;;;;;;;2.44;nan;101985.13;4971579;28;20300;-79
2022/04/28 03:01:36;;;;;;;15.97;8.50;;;;;;;2.37;nan;101990.97;4958039;28;20060;-80
2022/04/28 03:04:03;;;;;;;12.50;7.33;;;;;;;2.37;nan;101988.34;4972863;28;20031;-80
2022/04/28 03:12:01;;;;;;;13.10;7.53;;;;;;;2.03;nan;101991.50;4973896;28;20048;-79
2022/04/28 03:14:28;;;;;;;14.10;8.37;;;;;;;2.00;nan;101987.06;4955280;28;20399;-79
2022/04/28 03:16:55;;;;;;;16.73;9.37;;;;;;;2.00;nan;101992.25;4957706;28;20049;-79
2022/04/28 03:19:22;;;;;;;15.80;9.57;;;;;;;1.93;nan;101983.38;4940247;28;20053;-79
2022/04/28 03:21:49;;;;;;;12.27;7.20;;;;;;;1.84;nan;101987.34;4956225;28;20041;-80
2022/04/28 03:24:16;;;;;;;14.63;8.07;;;;;;;1.78;nan;101990.63;4990375;28;20045;-79
2022/04/28 03:26:43;;;;;;;14.97;8.93;;;;;;;1.73;nan;101986.06;4973867;28;20246;-81
2022/04/28 03:29:09;;;;;;;12.73;7.83;;;;;;;1.73;nan;101999.97;4969839;28;20041;-80
2022/04/28 03:31:36;;;;;;;15.60;8.53;;;;;;;1.76;nan;101996.59;4973397;28;20056;-80
2022/04/28 03:34:03;;;;;;;14.77;8.10;;;;;;;1.65;nan;101999.69;4975941;28;20046;-79
2022/04/28 03:39:16;;;;;;;13.77;7.90;;;;;;;1.65;nan;101991.88;4970344;28;20041;-80
2022/04/28 03:41:43;;;;;;;18.00;8.37;;;;;;;1.66;nan;101995.38;4960666;28;20041;-80
2022/04/28 03:44:10;;;;;;;16.30;8.43;;;;;;;1.71;nan;101995.56;4969587;28;20045;-80
2022/04/28 03:46:37;;;;;;;11.77;7.73;;;;;;;1.82;nan;102005.53;4969456;28;20043;-79
2022/04/28 03:49:04;;;;;;;11.23;7.77;;;;;;;1.82;nan;101995.09;4994815;28;20049;-79
2022/04/28 03:51:31;;;;;;;13.27;7.97;;;;;;;1.96;nan;102006.03;4951988;28;20089;-79
2022/04/28 03:54:00;;;;;;;13.03;8.00;;;;;;;1.96;nan;102004.31;4953855;28;20118;-79
2022/04/28 03:56:31;;;;;;;14.57;8.00;;;;;;;1.93;nan;102008.50;4972339;28;20038;-81
2022/04/28 03:58:59;;;;;;;12.23;7.73;;;;;;;1.90;nan;102013.63;4972684;28;20042;-80
2022/04/28 04:01:26;;;;;;;14.50;8.27;;;;;;;1.93;nan;102016.31;4955256;28;20041;-80
2022/04/28 04:03:53;;;;;;;13.40;7.83;;;;;;;1.96;nan;102016.47;4954463;28;20050;-80
2022/04/28 04:06:20;;;;;;;14.17;8.87;;;;;;;1.96;nan;102012.13;4972202;28;20423;-80
2022/04/28 04:08:48;;;;;;;14.23;8.57;;;;;;;1.96;nan;102019.94;4938689;28;20420;-80
2022/04/28 04:11:15;;;;;;;14.23;8.37;;;;;;;2.03;nan;102022.78;4941923;28;20064;-79
2022/04/28 04:13:42;;;;;;;11.93;7.93;;;;;;;2.06;nan;102025.50;4971758;28;20034;-80
2022/04/28 04:16:10;;;;;;;13.40;8.40;;;;;;;2.18;nan;102024.19;4975948;28;20031;-79
2022/04/28 04:18:37;;;;;;;12.47;7.40;;;;;;;2.19;nan;102025.13;4941635;28;20049;-79
2022/04/28 04:21:04;;;;;;;14.67;8.23;;;;;;;2.30;nan;102025.47;4970697;28;20034;-80
2022/04/28 04:23:31;;;;;;;13.47;7.70;;;;;;;2.32;nan;102027.28;4975161;28;20046;-79
2022/04/28 04:25:58;;;;;;;12.80;8.97;;;;;;;2.40;nan;102028.44;4977373;28;20026;-79
2022/04/28 04:28:25;;;;;;;14.30;9.40;;;;;;;2.50;nan;102029.66;4970668;28;20034;-79
2022/04/28 04:33:37;;;;;;;13.23;8.27;;;;;;;2.67;nan;102032.84;4989184;28;20039;-79
2022/04/28 04:36:04;;;;;;;14.93;8.90;;;;;;;2.74;nan;102027.00;4974086;28;20042;-80
2022/04/28 04:38:31;;;;;;;13.43;8.67;;;;;;;2.81;nan;102035.06;4959705;28;20042;-80
2022/04/28 04:40:58;;;;;;;13.43;8.07;;;;;;;2.90;nan;102039.72;4948317;28;20151;-78
2022/04/28 04:43:27;;;;;;;14.60;8.93;;;;;;;2.95;nan;102029.44;4966570;28;20513;-80
2022/04/28 04:45:54;;;;;;;12.83;7.70;;;;;;;3.05;nan;102034.09;4966297;28;20095;-79
2022/04/28 04:48:24;;;;;;;12.67;7.80;;;;;;;3.10;nan;102037.72;4964470;28;20121;-80
2022/04/28 04:50:52;;;;;;;13.23;8.17;;;;;;;3.13;nan;102035.25;4951578;28;20133;-80
2022/04/28 04:53:21;;;;;;;13.43;8.40;;;;;;;3.22;nan;102037.25;4970706;28;20043;-80
2022/04/28 04:55:48;;;;;;;13.60;7.77;;;;;;;3.30;nan;102038.38;4964569;28;20061;-78
2022/04/28 04:58:15;;;;;;;10.90;7.73;;;;;;;3.41;nan;102047.44;4977308;28;20052;-78
2022/04/28 05:00:42;;;;;;;10.87;7.83;;;;;;;3.52;nan;102039.91;4976719;28;20522;-78
2022/04/28 05:03:09;;;;;;;11.53;7.43;;;;;;;3.63;nan;102056.81;4973758;28;20065;-78
2022/04/28 05:05:36;;;;;;;11.83;7.57;;;;;;;3.74;nan;102046.66;4978875;28;20062;-80
2022/04/28 05:08:04;;;;;;;10.93;7.13;;;;;;;3.80;nan;102057.31;4954365;28;20050;-84
2022/04/28 05:10:31;;;;;;;12.60;7.27;;;;;;;3.83;nan;102047.81;4976541;28;20042;-78
2022/04/28 05:12:57;;;;;;;14.67;8.27;;;;;;;3.89;nan;102058.47;4959265;28;20423;-78
2022/04/28 05:15:24;;;;;;;11.30;7.73;;;;;;;3.92;nan;102055.03;4975074;28;20038;-80
2022/04/28 05:17:51;;;;;;;12.57;8.00;;;;;;;3.94;nan;102059.47;4961593;28;20043;-78
2022/04/28 05:20:18;;;;;;;12.23;7.47;;;;;;;3.95;nan;102058.66;4976041;28;20046;-81
2022/04/28 05:22:46;;;;;;;10.90;6.60;;;;;;;4.16;nan;102066.22;4993781;28;20038;-78
2022/04/28 05:25:13;;;;;;;11.57;7.47;;;;;;;4.33;nan;102057.94;4959036;28;20048;-81
2022/04/28 05:27:40;;;;;;;10.77;7.27;;;;;;;4.38;nan;102062.47;4961810;28;20045;-79
2022/04/28 05:30:09;;;;;;;12.13;7.40;;;;;;;4.38;nan;102057.25;4975478;28;20046;-78
2022/04/28 05:32:36;;;;;;;11.87;7.20;;;;;;;4.43;nan;102062.56;4993287;28;20038;-83
2022/04/28 05:35:04;;;;;;;12.40;7.20;;;;;;;4.45;nan;102059.16;4973127;28;20042;-79
2022/04/28 05:37:31;;;;;;;10.53;7.30;;;;;;;4.54;nan;102061.16;4955983;28;20043;-81
2022/04/28 05:39:58;;;;;;;10.50;7.37;;;;;;;4.61;nan;102059.56;4972728;28;20053;-78
2022/04/28 05:45:41;;;;;;;12.47;7.13;;;;;;;4.78;nan;102063.50;4928659;28;20045;-78
2022/04/28 05:47:57;;;;;;;12.03;6.80;;;;;;;5.35;nan;102068.41;4978186;28;20038;-83
2022/04/28 05:50:24;;;;;;;14.03;7.30;;;;;;;5.91;nan;102066.19;4973098;28;20034;-78
2022/04/28 05:52:51;;;;;;;10.83;6.80;;;;;;;6.55;nan;102067.44;4988873;28;20034;-78
2022/04/28 05:55:18;;;;;;;10.53;8.40;;;;;;;6.95;nan;102070.78;4980623;28;20068;-80
2022/04/28 05:57:45;;;;;;;10.53;7.23;;;;;;;6.97;nan;102063.81;4959842;28;20050;-78
2022/04/28 06:00:12;;;;;;;10.97;7.07;;;;;;;7.19;nan;102065.06;4990154;28;20048;-80
2022/04/28 06:02:39;;;;;;;15.17;7.07;;;;;;;7.03;nan;102077.94;4975255;28;20050;-78
2022/04/28 06:05:06;;;;;;;18.63;7.90;;;;;;;6.94;nan;102071.66;4957456;28;20050;-80
2022/04/28 06:07:33;;;;;;;21.80;9.23;;;;;;;6.82;nan;102072.34;4975541;28;20056;-78
2022/04/28 06:10:00;;;;;;;13.43;8.33;;;;;;;6.76;nan;102075.72;4940616;28;20054;-79
2022/04/28 06:12:28;;;;;;;14.80;8.40;;;;;;;6.85;nan;102077.63;4958355;28;20042;-78
2022/04/28 06:14:55;;;;;;;14.23;9.33;;;;;;;7.23;nan;102077.38;4956355;28;20042;-78
2022/04/28 06:17:22;;;;;;;15.00;9.17;;;;;;;7.72;nan;102075.47;4941890;28;20052;-81
2022/04/28 06:19:49;;;;;;;14.80;10.17;;;;;;;8.43;nan;102071.16;4957400;28;20038;-78
2022/04/28 06:22:36;;;;;;;15.83;8.37;;;;;;;9.24;nan;102071.00;4961483;28;20648;-81
2022/04/28 06:25:03;;;;;;;15.97;9.73;;;;;;;9.91;nan;102073.16;4972965;28;20402;-78
2022/04/28 06:27:30;;;;;;;16.10;9.03;;;;;;;10.50;nan;102070.78;4973441;28;20061;-78
2022/04/28 06:29:57;;;;;;;15.13;8.97;;;;;;;11.41;nan;102069.06;4947951;28;20042;-79
2022/04/28 06:32:24;;;;;;;14.37;8.50;;;;;;;12.02;nan;102072.50;5047792;23;20034;-81
2022/04/28 06:34:51;;;;;;;12.50;8.27;;;;;;;12.91;nan;102064.00;4973509;28;20047;-80
2022/04/28 06:37:17;;;;;;;11.88;7.95;;;;;;;13.46;nan;102069.75;4963199;28;20027;-81
2022/04/28 06:39:44;;;;;;;15.90;8.52;;;;;;;13.61;nan;102070.47;4979483;28;20121;-81
2022/04/28 06:42:12;;;;;;;15.43;8.30;;;;;;;13.49;nan;102067.06;4945726;28;20126;-78
2022/04/28 06:44:39;;;;;;;11.00;7.28;;;;;;;13.36;nan;102054.78;4983738;28;20094;-79
2022/04/28 06:47:06;;;;;;;10.75;7.38;;;;;;;13.45;nan;102069.75;4950804;28;20575;-79
2022/04/28 06:49:34;;;;;;;16.40;7.30;;;;;;;13.26;nan;102073.47;4995658;28;20114;-80
2022/04/28 06:52:01;;;;;;;10.88;6.68;;;;;;;13.59;nan;102075.81;4950601;29;20114;-80
2022/04/28 06:54:28;;;;;;;13.75;8.23;;;;;;;13.94;nan;102067.44;4989575;28;20105;-79
2022/04/28 06:56:55;;;;;;;12.68;7.15;;;;;;;14.08;nan;102062.84;5003198;28;20121;-79
2022/04/28 06:59:22;;;;;;;10.40;6.45;;;;;;;14.29;nan;102068.75;4951791;28;20091;-79
2022/04/28 07:01:49;;;;;;;11.93;7.47;;;;;;;14.52;nan;102071.16;4963981;28;20095;-77
2022/04/28 07:04:16;;;;;;;12.80;7.80;;;;;;;14.35;nan;102076.66;4945422;28;20126;-78
2022/04/28 07:06:43;;;;;;;11.48;6.68;;;;;;;14.45;nan;102080.97;4964356;28;20102;-79
2022/04/28 07:09:14;;;;;;;9.95;6.20;;;;;;;14.53;nan;102078.22;4965366;28;20094;-78
2022/04/28 07:11:41;;;;;;;11.30;6.85;;;;;;;14.37;nan;102082.84;4964910;28;20107;-78
2022/04/28 07:14:08;;;;;;;10.48;6.88;;;;;;;14.04;nan;102078.81;4962562;28;20102;-79
2022/04/28 07:16:35;;;;;;;11.93;6.72;;;;;;;14.47;nan;102076.56;4948284;28;20122;-77
2022/04/28 07:19:03;;;;;;;12.25;7.00;;;;;;;14.54;nan;102070.22;4959514;28;20122;-78
2022/04/28 07:21:30;;;;;;;12.02;6.32;;;;;;;14.53;nan;102081.75;4976216;28;20118;-78
2022/04/28 07:23:57;;;;;;;10.18;6.78;;;;;;;14.44;nan;102080.97;4974619;28;20129;-78
2022/04/28 07:26:24;;;;;;;12.32;6.75;;;;;;;14.41;nan;102078.38;4945326;28;20110;-79
2022/04/28 07:28:51;;;;;;;9.18;5.70;;;;;;;14.55;nan;102087.09;4938366;28;20045;-77
2022/04/28 07:31:18;;;;;;;14.27;6.45;;;;;;;14.83;nan;102079.56;4981881;28;20126;-78
2022/04/28 07:33:45;;;;;;;11.18;5.68;;;;;;;14.91;nan;102088.31;4946177;29;20095;-79
2022/04/28 07:36:14;;;;;;;12.23;6.20;;;;;;;15.23;nan;102089.56;4933983;28;20118;-78
2022/04/28 07:38:42;;;;;;;9.68;5.38;;;;;;;15.17;nan;102094.09;4977604;28;20118;-78
2022/04/28 07:41:09;;;;;;;13.02;6.80;;;;;;;15.23;nan;102095.78;4939552;28;20118;-78
2022/04/28 07:43:35;;;;;;;8.15;5.72;;;;;;;15.41;nan;102092.78;4956092;28;20039;-78
2022/04/28 07:46:02;;;;;;;9.23;6.93;;;;;;;15.49;nan;102084.66;4954345;28;20464;-78
2022/04/28 07:48:29;;;;;;;12.00;6.32;;;;;;;15.61;nan;102086.25;4935526;28;20501;-78
2022/04/28 07:50:56;;;;;;;7.45;5.70;;;;;;;15.66;nan;102079.94;4929604;29;20565;-77
2022/04/28 07:53:23;;;;;;;8.88;5.88;;;;;;;15.14;nan;102091.47;4964180;28;20098;-79
2022/04/28 07:58:37;;;;;;;9.13;5.70;;;;;;;15.39;nan;102081.28;4970049;28;20114;-79
2022/04/28 08:01:04;;;;;;;10.18;5.95;;;;;;;15.25;nan;102083.31;4941496;28;20110;-79
2022/04/28 08:03:31;;;;;;;7.55;5.63;;;;;;;15.40;nan;102084.84;4958629;28;20110;-79
2022/04/28 08:05:58;;;;;;;9.45;5.72;;;;;;;14.78;nan;102087.59;4955727;29;20114;-78
2022/04/28 08:08:25;;;;;;;11.35;6.22;;;;;;;14.90;nan;102081.22;4941764;28;20099;-79
2022/04/28 08:10:53;;;;;;;9.13;5.57;;;;;;;15.27;nan;102085.94;4962527;28;20457;-78
2022/04/28 08:13:20;;;;;;;9.25;5.57;;;;;;;15.55;nan;102081.88;4931895;28;20051;-79
2022/04/28 08:15:47;;;;;;;36.75;8.52;;;;;;;15.57;nan;102080.06;4942231;29;20066;-78
2022/04/28 08:18:14;;;;;;;9.02;6.05;;;;;;;15.80;nan;102078.78;4939905;28;20516;-79
2022/04/28 08:20:41;;;;;;;8.32;5.05;;;;;;;15.19;nan;102086.94;4927253;29;20112;-79
2022/04/28 08:23:08;;;;;;;8.18;5.70;;;;;;;15.22;nan;102094.03;4926462;28;20041;-79
2022/04/28 08:25:35;;;;;;;10.15;6.65;;;;;;;15.31;nan;102093.88;4950877;29;20051;-78
2022/04/28 08:28:02;;;;;;;11.38;5.30;;;;;;;14.75;nan;102090.31;4923822;29;20042;-77
2022/04/28 08:30:30;;;;;;;8.02;5.22;;;;;;;15.07;nan;102091.59;4966017;28;20119;-78
2022/04/28 08:32:59;;;;;;;8.65;5.60;;;;;;;15.24;nan;102091.31;4942921;28;20050;-78
2022/04/28 08:35:27;;;;;;;9.05;5.28;;;;;;;15.30;nan;102096.53;4964346;28;20038;-79
2022/04/28 08:37:54;;;;;;;7.40;6.05;;;;;;;15.21;nan;102092.22;4948380;28;20043;-78
2022/04/28 08:40:21;;;;;;;9.50;5.57;;;;;;;15.09;nan;102097.78;4974608;28;20060;-78
2022/04/28 08:42:49;;;;;;;8.70;5.57;;;;;;;15.01;nan;102099.69;4960397;28;20035;-81
2022/04/28 08:45:18;;;;;;;8.43;5.70;;;;;;;14.86;nan;102093.69;4953778;28;20098;-81
2022/04/28 08:47:46;;;;;;;10.05;5.47;;;;;;;14.69;nan;102097.50;4956010;28;20118;-81
2022/04/28 08:50:14;;;;;;;6.50;4.40;;;;;;;14.61;nan;102092.28;4957908;28;20122;-82
2022/04/28 08:52:41;;;;;;;8.40;5.53;;;;;;;14.34;nan;102093.53;4948892;29;20110;-80
2022/04/28 08:55:08;;;;;;;7.80;4.80;;;;;;;14.45;nan;102093.38;4968007;28;20113;-80
2022/04/28 08:57:36;;;;;;;9.32;5.57;;;;;;;15.15;nan;102092.34;4978669;28;20095;-79
2022/04/28 09:00:04;;;;;;;9.38;5.30;;;;;;;15.69;nan;102087.84;4965968;28;20114;-81
2022/04/28 09:02:31;;;;;;;7.32;5.57;;;;;;;15.49;nan;102096.19;4964460;28;20109;-81
2022/04/28 09:05:04;;;;;;;8.02;5.57;;;;;;;15.77;nan;102091.25;4954532;28;20123;-81
2022/04/28 09:07:40;;;;;;;8.05;4.72;;;;;;;15.78;nan;102084.13;4948153;28;20099;-79
2022/04/28 09:10:26;;;;;;;8.27;5.13;;;;;;;16.09;nan;102105.75;4999743;28;20106;-78
2022/04/28 09:12:57;;;;;;;7.70;4.90;;;;;;;16.12;nan;102095.00;4978345;28;20118;-81
2022/04/28 09:15:24;;;;;;;8.18;5.00;;;;;;;16.78;nan;102080.25;4977923;28;20495;-79
2022/04/28 09:17:51;;;;;;;11.48;5.38;;;;;;;17.30;nan;102079.81;4984475;28;20173;-80
2022/04/28 09:20:21;;;;;;;7.32;6.60;;;;;;;17.26;nan;102086.19;4968209;28;20083;-79
2022/04/28 09:22:51;;;;;;;6.65;4.68;;;;;;;16.81;nan;102077.50;4947610;28;20122;-81
2022/04/28 09:25:20;;;;;;;8.43;4.65;;;;;;;16.89;nan;102081.72;4963285;28;20098;-78
2022/04/28 09:27:50;;;;;;;6.70;4.90;;;;;;;16.89;nan;102094.19;4954001;28;20099;-79
2022/04/28 09:30:22;;;;;;;8.73;5.03;;;;;;;16.56;nan;102095.81;4935587;28;20133;-81
2022/04/28 09:32:54;;;;;;;8.05;5.05;;;;;;;16.56;nan;102090.50;4979794;28;20102;-81
2022/04/28 09:35:27;;;;;;;6.47;5.13;;;;;;;16.47;nan;102090.69;4967277;28;20118;-78
2022/04/28 09:37:54;;;;;;;5.03;4.35;;;;;;;16.19;nan;102088.63;4972738;28;20090;-82
2022/04/28 09:43:06;;;;;;;6.72;4.70;;;;;;;16.82;nan;102077.47;4977233;28;20091;-80
2022/04/28 09:45:34;;;;;;;8.82;4.85;;;;;;;17.52;nan;102072.13;4968029;28;20467;-79
2022/04/28 09:48:03;;;;;;;6.20;4.45;;;;;;;17.40;nan;102068.00;4985654;28;20067;-80
2022/04/28 09:50:31;;;;;;;7.47;4.53;;;;;;;16.74;nan;102074.13;4999679;28;20110;-79
2022/04/28 09:53:05;;;;;;;7.68;5.07;;;;;;;16.11;nan;102079.03;4967218;28;20466;-80
2022/04/28 09:55:32;;;;;;;6.88;4.60;;;;;;;15.86;nan;102081.31;4983649;28;20106;-78
2022/04/28 09:57:59;;;;;;;6.90;4.05;;;;;;;15.57;nan;102079.19;4999252;28;20106;-80
2022/04/28 10:00:26;;;;;;;6.40;4.10;;;;;;;15.54;nan;102085.44;4983160;28;20114;-82
2022/04/28 10:02:55;;;;;;;7.53;4.50;;;;;;;15.65;nan;102083.50;4984300;28;20099;-83
2022/04/28 10:05:25;;;;;;;5.13;3.53;;;;;;;15.75;nan;102086.88;4967079;28;20122;-81
2022/04/28 10:07:53;;;;;;;5.07;3.47;;;;;;;16.68;nan;102079.56;4951168;28;20122;-79
2022/04/28 10:10:20;;;;;;;3.88;3.25;;;;;;;17.70;nan;102074.34;4963443;28;20115;-77
2022/04/28 10:12:48;;;;;;;4.50;3.08;;;;;;;18.07;nan;102075.09;4982546;28;20137;-80
2022/04/28 10:15:15;;;;;;;38.95;8.18;;;;;;;17.79;nan;102075.88;4978534;28;20099;-79
2022/04/28 10:17:52;;;;;;;13.63;4.68;;;;;;;17.11;nan;102082.09;4971019;28;20090;-80
2022/04/28 10:20:25;;;;;;;9.23;4.75;;;;;;;16.50;nan;102077.31;4958024;28;20152;-80
2022/04/28 10:23:14;;;;;;;8.95;4.50;;;;;;;16.37;nan;102083.81;4987935;28;20554;-80
2022/04/28 10:34:30;;;;;;;7.38;4.50;;;;;;;17.76;nan;102081.31;4937587;29;20043;-79
2022/04/28 10:36:59;;;;;;;6.22;4.68;;;;;;;17.28;nan;102087.00;4955065;28;20043;-79
2022/04/28 10:39:33;;;;;;;5.82;4.45;;;;;;;16.66;nan;102081.38;4961245;28;20041;-80
2022/04/28 10:42:10;;;;;;;7.40;3.90;;;;;;;16.31;nan;102088.41;4936378;29;20475;-79
2022/04/28 10:44:51;;;;;;;6.68;4.38;;;;;;;16.20;nan;102092.19;4970957;28;20042;-81
2022/04/28 10:47:28;;;;;;;5.75;4.70;;;;;;;15.87;nan;102099.06;4972912;28;20039;-81
2022/04/28 10:49:55;;;;;;;7.95;4.15;;;;;;;15.76;nan;102097.50;4973644;28;20130;-81
2022/04/28 10:52:23;;;;;;;9.27;4.30;;;;;;;15.83;nan;102100.94;4961315;28;20113;-80
2022/04/28 10:54:54;;;;;;;4.93;3.95;;;;;;;15.90;nan;102104.34;4974451;28;20115;-82
2022/04/28 10:57:37;;;;;;;6.70;4.00;;;;;;;15.91;nan;102095.44;4964163;28;20508;-81
2022/04/28 11:00:04;;;;;;;5.13;3.30;;;;;;;16.18;nan;102097.56;4975724;28;20039;-82
2022/04/28 11:02:37;;;;;;;5.78;4.15;;;;;;;16.29;nan;102097.31;4980775;28;20122;-80
2022/04/28 11:05:30;;;;;;;5.88;4.18;;;;;;;16.35;nan;102097.19;4990187;28;20127;-82
2022/04/28 11:07:59;;;;;;;5.57;3.40;;;;;;;16.34;nan;102098.09;4955191;28;20078;-81
2022/04/28 11:10:27;;;;;;;6.93;3.13;;;;;;;16.23;nan;102087.69;4960568;28;20709;-79
2022/04/28 11:12:55;;;;;;;8.13;4.20;;;;;;;16.21;nan;102096.59;4974786;28;20280;-81
2022/04/28 11:15:25;;;;;;;8.40;4.70;;;;;;;15.96;nan;102098.88;4942054;28;20057;-81
2022/04/28 11:17:52;;;;;;;7.18;4.28;;;;;;;15.80;nan;102097.44;4957481;28;20045;-79
2022/04/28 11:20:21;;;;;;;8.38;5.25;;;;;;;15.57;nan;102104.06;4951252;28;20042;-80
2022/04/28 11:22:51;;;;;;;5.70;4.40;;;;;;;15.26;nan;102100.16;4961093;28;20053;-80
2022/04/28 11:25:20;;;;;;;6.13;3.90;;;;;;;15.23;nan;102087.78;4960321;28;20438;-79
2022/04/28 11:27:49;;;;;;;6.03;3.90;;;;;;;15.18;nan;102093.16;4962119;28;20501;-80
2022/04/28 11:30:21;;;;;;;7.22;4.13;;;;;;;15.55;nan;102086.31;4957622;28;20035;-79
2022/04/28 11:32:57;;;;;;;7.18;3.67;;;;;;;15.99;nan;102090.84;4973583;28;20061;-79
2022/04/28 11:35:35;;;;;;;5.65;4.20;;;;;;;16.19;nan;102087.75;4957439;28;20049;-79
2022/04/28 11:38:02;;;;;;;5.60;2.65;;;;;;;16.76;nan;102080.28;4960386;28;20030;-80
2022/04/28 11:40:35;;;;;;;4.95;3.00;;;;;;;16.77;nan;102079.38;4957545;28;20138;-79
2022/04/28 11:43:03;;;;;;;5.20;3.17;;;;;;;16.76;nan;102079.41;4958921;28;20039;-80
2022/04/28 11:45:32;;;;;;;5.20;3.42;;;;;;;16.49;nan;102083.56;4943772;28;20050;-80
2022/04/28 11:48:00;;;;;;;7.95;4.15;;;;;;;16.23;nan;102082.34;4966762;28;20046;-79
2022/04/28 11:50:34;;;;;;;7.97;3.55;;;;;;;16.11;nan;102087.91;4947293;28;20435;-79
2022/04/28 11:53:07;;;;;;;10.68;3.30;;;;;;;16.05;nan;102088.91;4954825;28;20043;-79
2022/04/28 11:55:38;;;;;;;8.20;3.75;;;;;;;16.06;nan;102084.50;4960026;28;20612;-78
2022/04/28 11:58:06;;;;;;;6.38;3.22;;;;;;;16.29;nan;102071.53;4952630;28;20039;-79
2022/04/28 12:00:37;;;;;;;6.75;3.20;;;;;;;16.76;nan;102074.94;4942407;28;20057;-79
2022/04/28 12:03:04;;;;;;;6.13;3.67;;;;;;;17.12;nan;102069.63;4976401;28;20046;-80
2022/04/28 12:05:33;;;;;;;4.65;3.15;;;;;;;17.43;nan;102070.59;4967268;28;20484;-79
2022/04/28 12:08:01;;;;;;;4.68;3.20;;;;;;;17.54;nan;102067.63;4958362;28;20039;-79
2022/04/28 12:16:06;;;;;;;5.30;3.17;;;;;;;17.03;nan;102067.19;4950107;28;20406;-79
2022/04/28 12:21:24;;;;;;;7.38;3.40;;;;;;;17.02;nan;102073.44;4973797;28;20035;-79
2022/04/28 12:23:55;;;;;;;7.95;3.50;;;;;;;17.09;nan;102080.38;4983659;28;20046;-78
2022/04/28 12:26:24;;;;;;;5.65;3.55;;;;;;;16.72;nan;102075.91;4944736;28;20393;-79
2022/04/28 12:28:51;;;;;;;6.93;3.25;;;;;;;16.59;nan;102069.09;4957774;28;20403;-79